EGPO

Stornoway Airport

Stornoway, United Kingdom
METAR EGPO 131020Z 14019KT 9999 FEW018 07/M02 Q1011
Observed Flight Rules
Dec-13 @ 10:20 UTC (31 minutes ago) Visual Flight Rules
Wind Visibility Clouds
140° at 19 knots 10,000+ meters
  • Few at 1,800' AGL
Temperatures Readings
Current 7°C / 45°F
Dewpoint -2°C / 28°F
Humidity 53%
Altimeter 29.85" Hg
Pressure 1011 hPa
Elevation 13
METAR EGPO 131020Z 14019KT 9999 FEW018 07/M02 Q1011
Observed Flight Rules
Dec-13 @ 10:20 UTC
(31 minutes ago)
VFR
Wind Visibility
140° at 19 knots 10,000+ meters
Clouds
  • Few at 1,800' AGL
Temperature Dewpoint
7°C / 45°F -2°C / 28°F
Humidity Altimeter Pressure
53% 29.85" Hg 1011 hPa